createdAt,value
2024-01-30T00:00:57.508Z,4.946308724832215
2024-01-30T00:04:18.704Z,4.322147651006712
2024-01-30T00:10:38.567Z,3.651006711409396
2024-01-30T00:13:58.415Z,3.5167785234899327
2024-01-30T00:20:04.850Z,3.87248322147651
2024-01-30T00:23:25.563Z,3.5369127516778525
2024-01-30T00:28:23.685Z,2.348993288590604
2024-01-30T00:31:44.880Z,4.248322147651007
2024-01-30T00:35:04.914Z,3.0134228187919465
2024-01-30T00:38:26.849Z,2.469798657718121
2024-01-30T00:42:06.886Z,3.6711409395973154
2024-01-30T00:45:28.481Z,2.7986577181208054
2024-01-30T00:48:49.076Z,3.6040268456375837
2024-01-30T00:52:09.444Z,3.5503355704697985
2024-01-30T00:55:30.040Z,4.543624161073826
2024-01-30T00:58:50.459Z,3.6308724832214767
2024-01-30T01:02:11.032Z,2.865771812080537
2024-01-30T01:05:32.431Z,3.4966442953020134
2024-01-30T01:08:53.036Z,3.7449664429530203
2024-01-30T01:12:15.132Z,4.147651006711409
2024-01-30T01:15:36.103Z,2.315436241610738
2024-01-30T01:18:56.677Z,1.6644295302013423
2024-01-30T01:22:56.147Z,4.563758389261745
2024-01-30T01:26:17.746Z,3.7114093959731544
2024-01-30T01:31:41.839Z,2.5503355704697985
2024-01-30T01:37:19.252Z,3.208053691275168
2024-01-30T01:40:39.294Z,3.1140939597315436
2024-01-30T01:43:59.342Z,2.48993288590604
2024-01-30T01:47:20.327Z,3.8926174496644297
2024-01-30T01:50:41.417Z,3.0067114093959733
2024-01-30T01:55:48.036Z,3.442953020134228
2024-01-30T02:01:55.129Z,3.523489932885906
2024-01-30T02:05:16.298Z,3.335570469798658
2024-01-30T02:08:36.532Z,2.8120805369127515
2024-01-30T02:16:40.295Z,2.5906040268456376
2024-01-30T02:20:00.859Z,2.9865771812080535
2024-01-30T02:24:00.280Z,2.48993288590604
2024-01-30T02:27:21.422Z,2.3624161073825505
2024-01-30T02:30:42.761Z,3.348993288590604
2024-01-30T02:34:03.009Z,2.476510067114094
2024-01-30T02:37:22.994Z,2.704697986577181
2024-01-30T02:40:43.217Z,2.7651006711409396
2024-01-30T02:44:03.714Z,2.38255033557047
2024-01-30T02:47:24.368Z,3.348993288590604
2024-01-30T02:50:44.842Z,2.651006711409396
2024-01-30T02:57:49.070Z,2.402684563758389
2024-01-30T03:01:09.582Z,3.4630872483221475
2024-01-30T03:04:32.255Z,2.3221476510067114
2024-01-30T03:07:52.495Z,2.7114093959731544
2024-01-30T03:14:29.213Z,1.9060402684563758
2024-01-30T03:17:49.294Z,2.402684563758389
2024-01-30T03:21:09.560Z,2.523489932885906
2024-01-30T03:24:32.610Z,2.9865771812080535
2024-01-30T03:27:53.144Z,3.1073825503355703
2024-01-30T03:31:14.261Z,2.6241610738255035
2024-01-30T03:37:46.212Z,2.228187919463087
2024-01-30T03:41:06.174Z,1.74496644295302
2024-01-30T03:47:20.029Z,2.6040268456375837
2024-01-30T03:50:40.385Z,2.5436241610738257
2024-01-30T03:54:00.749Z,3.1140939597315436
2024-01-30T03:58:16.407Z,3.48993288590604
2024-01-30T04:04:37.204Z,3.597315436241611
2024-01-30T04:07:57.140Z,1.9731543624161074
2024-01-30T04:11:17.715Z,3.161073825503356
2024-01-30T04:14:38.074Z,3.912751677852349
2024-01-30T04:17:58.059Z,3.0939597315436242
2024-01-30T04:21:18.840Z,2.228187919463087
2024-01-30T04:24:38.818Z,2.4496644295302015
2024-01-30T04:27:58.887Z,3.053691275167785
2024-01-30T04:31:19.454Z,3.4496644295302015
2024-01-30T04:35:00.536Z,3.1879194630872485
2024-01-30T04:38:21.744Z,2.469798657718121
2024-01-30T04:41:41.703Z,3.0201342281879193
2024-01-30T04:45:01.786Z,5.496644295302014
2024-01-30T04:51:26.022Z,3.597315436241611
2024-01-30T04:55:55.662Z,2.8993288590604025
2024-01-30T05:04:17.201Z,3.3691275167785233
2024-01-30T05:07:37.933Z,2.4966442953020134
2024-01-30T05:10:58.636Z,2.8993288590604025
2024-01-30T05:14:19.502Z,2.3758389261744965
2024-01-30T05:17:39.989Z,3.4563758389261743
2024-01-30T05:20:59.893Z,2.8859060402684564
2024-01-30T05:24:22.425Z,3.248322147651007
2024-01-30T05:27:43.575Z,3.1543624161073827
2024-01-30T05:34:29.748Z,4.0
2024-01-30T05:37:56.315Z,2.4093959731543624
2024-01-30T05:41:17.625Z,3.248322147651007
2024-01-30T05:44:38.898Z,4.167785234899329
2024-01-30T05:47:58.964Z,2.2550335570469797
2024-01-30T05:51:19.447Z,1.8389261744966443
2024-01-30T05:54:40.465Z,2.7315436241610738
2024-01-30T05:58:00.362Z,3.6308724832214767
2024-01-30T06:01:21.721Z,2.6308724832214767
2024-01-30T06:04:42.320Z,3.422818791946309
2024-01-30T06:08:03.268Z,4.053691275167785
2024-01-30T06:11:24.889Z,4.060402684563758
2024-01-30T06:14:47.407Z,2.7248322147651005
2024-01-30T06:18:07.584Z,2.4093959731543624
2024-01-30T06:21:27.955Z,2.389261744966443
2024-01-30T06:24:47.817Z,1.9328859060402686
2024-01-30T06:29:44.111Z,2.859060402684564
2024-01-30T06:33:04.901Z,3.402684563758389
2024-01-30T06:36:24.953Z,3.8322147651006713
2024-01-30T06:39:45.497Z,2.174496644295302
2024-01-30T06:43:05.793Z,2.6778523489932886
2024-01-30T06:46:27.105Z,2.2684563758389262
2024-01-30T06:49:47.646Z,3.2013422818791946
2024-01-30T06:53:08.379Z,3.0805369127516777
2024-01-30T06:56:28.645Z,3.248322147651007
2024-01-30T06:59:49.436Z,3.8120805369127515
2024-01-30T07:03:09.169Z,3.3221476510067114
2024-01-30T07:06:29.776Z,3.7449664429530203
2024-01-30T07:09:50.038Z,4.322147651006712
2024-01-30T07:13:10.178Z,2.6040268456375837
2024-01-30T07:19:49.088Z,2.5167785234899327
2024-01-30T07:23:09.348Z,2.859060402684564
2024-01-30T07:26:29.937Z,2.1476510067114094
2024-01-30T07:29:50.085Z,3.1140939597315436
2024-01-30T07:33:10.255Z,3.610738255033557
2024-01-30T07:36:30.828Z,3.4630872483221475
2024-01-30T07:39:51.289Z,2.778523489932886
2024-01-30T07:43:42.482Z,2.6308724832214767
2024-01-30T07:47:02.438Z,2.1677852348993287
2024-01-30T07:52:06.817Z,3.9798657718120807
2024-01-30T07:55:27.483Z,3.4093959731543624
2024-01-30T08:00:50.225Z,2.7583892617449663
2024-01-30T08:04:10.159Z,3.335570469798658
2024-01-30T08:07:30.209Z,4.006711409395973
2024-01-30T08:10:50.188Z,2.2550335570469797
2024-01-30T08:14:10.212Z,2.5906040268456376
2024-01-30T08:17:30.372Z,2.348993288590604
2024-01-30T08:20:50.959Z,3.5436241610738257
2024-01-30T08:25:52.378Z,3.9328859060402683
2024-01-30T08:29:13.060Z,4.268456375838926
2024-01-30T08:32:33.964Z,2.38255033557047
2024-01-30T08:35:54.426Z,3.879194630872483
2024-01-30T08:42:34.889Z,2.295302013422819
2024-01-30T08:45:55.068Z,3.1879194630872485
2024-01-30T08:51:04.123Z,2.778523489932886
2024-01-30T08:54:24.666Z,1.6778523489932886
2024-01-30T08:57:46.307Z,3.7583892617449663
2024-01-30T09:01:07.474Z,2.563758389261745
2024-01-30T09:04:28.967Z,2.7315436241610738
2024-01-30T09:07:49.636Z,2.9865771812080535
2024-01-30T09:11:10.006Z,2.838926174496644
2024-01-30T09:17:38.000Z,2.6308724832214767
2024-01-30T09:21:14.195Z,2.442953020134228
2024-01-30T09:24:35.359Z,2.4966442953020134
2024-01-30T09:27:55.372Z,4.087248322147651
2024-01-30T09:31:17.557Z,2.5369127516778525
2024-01-30T09:35:49.886Z,3.228187919463087
2024-01-30T09:39:10.246Z,3.38255033557047
2024-01-30T09:42:30.281Z,2.7986577181208054
2024-01-30T09:45:50.870Z,1.8389261744966443
2024-01-30T09:50:18.808Z,1.7583892617449663
2024-01-30T09:53:39.305Z,2.7449664429530203
2024-01-30T09:59:30.202Z,2.6375838926174495
2024-01-30T10:02:50.592Z,1.919463087248322
2024-01-30T10:06:10.827Z,2.3087248322147653
2024-01-30T10:09:31.520Z,4.046979865771812
2024-01-30T10:16:33.181Z,2.7181208053691277
2024-01-30T10:19:53.495Z,2.1073825503355703
2024-01-30T10:25:45.188Z,2.5503355704697985
2024-01-30T10:29:05.691Z,2.3422818791946307
2024-01-30T10:32:26.304Z,2.3758389261744965
2024-01-30T10:35:46.439Z,3.087248322147651
2024-01-30T10:39:07.211Z,3.134228187919463
2024-01-30T10:42:27.505Z,2.3624161073825505
2024-01-30T10:47:41.048Z,2.9798657718120807
2024-01-30T10:51:01.733Z,1.5906040268456376
2024-01-30T10:54:22.368Z,3.302013422818792
2024-01-30T10:57:43.317Z,2.7651006711409396
2024-01-30T11:01:03.801Z,2.5503355704697985
2024-01-30T11:04:25.323Z,2.61744966442953
2024-01-30T11:07:46.233Z,3.261744966442953
2024-01-30T11:11:06.172Z,3.2013422818791946
2024-01-30T11:14:27.070Z,2.825503355704698
2024-01-30T11:17:46.529Z,2.436241610738255
2024-01-30T11:23:59.087Z,1.7315436241610738
2024-01-30T11:27:19.669Z,2.4563758389261743
2024-01-30T11:30:39.639Z,2.704697986577181
2024-01-30T11:34:00.703Z,3.228187919463087
2024-01-30T11:37:22.543Z,2.8993288590604025
2024-01-30T11:40:43.686Z,2.335570469798658
2024-01-30T11:44:10.204Z,2.1543624161073827
2024-01-30T11:47:30.683Z,1.9530201342281879
2024-01-30T11:50:50.616Z,1.7248322147651007
2024-01-30T11:55:06.305Z,2.3624161073825505
2024-01-30T12:00:54.523Z,2.577181208053691
2024-01-30T12:04:15.930Z,2.9798657718120807
2024-01-30T12:07:36.119Z,3.2885906040268456
2024-01-30T12:10:56.715Z,1.516778523489933
2024-01-30T12:16:13.709Z,1.8657718120805369
2024-01-30T12:21:14.351Z,2.040268456375839
2024-01-30T12:24:35.177Z,2.0067114093959733
2024-01-30T12:27:55.099Z,2.295302013422819
2024-01-30T12:31:16.841Z,2.5033557046979866
2024-01-30T12:34:45.506Z,2.174496644295302
2024-01-30T12:39:24.646Z,2.2684563758389262
2024-01-30T12:42:45.720Z,2.7114093959731544
2024-01-30T12:46:06.077Z,2.4563758389261743
2024-01-30T12:49:27.647Z,2.6577181208053693
2024-01-30T12:52:49.788Z,2.953020134228188
2024-01-30T12:58:41.388Z,1.9060402684563758
2024-01-30T13:07:18.005Z,2.9932885906040267
2024-01-30T13:10:38.381Z,3.697986577181208
2024-01-30T13:13:59.594Z,2.51006711409396
2024-01-30T13:19:17.334Z,2.664429530201342
2024-01-30T13:22:37.764Z,2.6577181208053693
2024-01-30T13:25:58.330Z,2.8456375838926173
2024-01-30T13:29:18.484Z,3.7248322147651005
2024-01-30T13:32:39.387Z,2.577181208053691
2024-01-30T13:35:59.432Z,2.8322147651006713
2024-01-30T13:39:23.301Z,3.1476510067114094
2024-01-30T13:42:44.419Z,2.9060402684563758
2024-01-30T13:46:03.933Z,2.3624161073825505
2024-01-30T13:49:25.006Z,3.2550335570469797
2024-01-30T13:52:46.517Z,3.48993288590604
2024-01-30T13:58:55.886Z,2.120805369127517
2024-01-30T14:02:16.144Z,2.0201342281879193
2024-01-30T14:05:36.037Z,3.879194630872483
2024-01-30T14:09:01.265Z,1.7718120805369129
2024-01-30T14:12:28.798Z,2.4966442953020134
2024-01-30T14:20:05.150Z,2.2818791946308723
2024-01-30T14:23:25.909Z,2.664429530201342
2024-01-30T14:26:46.604Z,4.456375838926174
2024-01-30T14:30:08.285Z,2.8926174496644297
2024-01-30T14:33:29.388Z,3.053691275167785
2024-01-30T14:36:52.092Z,2.5369127516778525
2024-01-30T14:40:54.423Z,2.563758389261745
2024-01-30T14:44:15.487Z,3.046979865771812
2024-01-30T14:47:36.024Z,2.557046979865772
2024-01-30T14:53:49.008Z,2.7651006711409396
2024-01-30T14:57:09.918Z,2.9328859060402683
2024-01-30T15:00:30.608Z,2.3691275167785233
2024-01-30T15:03:51.320Z,2.0939597315436242
2024-01-30T15:07:12.556Z,3.51006711409396
2024-01-30T15:10:35.614Z,2.1677852348993287
2024-01-30T15:13:56.233Z,2.859060402684564
2024-01-30T15:17:17.221Z,3.221476510067114
2024-01-30T15:21:04.988Z,2.5033557046979866
2024-01-30T15:24:25.064Z,3.0201342281879193
2024-01-30T15:29:42.219Z,3.228187919463087
2024-01-30T15:40:25.127Z,3.3557046979865772
2024-01-30T15:47:02.136Z,2.1006711409395975
2024-01-30T15:52:46.175Z,2.1812080536912752
2024-01-30T15:56:06.435Z,1.5302013422818792
2024-01-30T15:59:27.226Z,2.51006711409396
2024-01-30T16:02:47.460Z,1.8120805369127517
2024-01-30T16:06:07.654Z,2.315436241610738
2024-01-30T16:09:28.833Z,1.825503355704698
2024-01-30T16:16:09.581Z,2.1879194630872485
2024-01-30T16:19:30.405Z,2.704697986577181
2024-01-30T16:22:52.886Z,1.342281879194631
2024-01-30T16:26:14.555Z,2.442953020134228
2024-01-30T16:29:36.546Z,2.248322147651007
2024-01-30T16:33:53.549Z,1.7986577181208054
2024-01-30T16:37:13.937Z,0.9261744966442953
2024-01-30T16:40:34.651Z,1.8859060402684564
2024-01-30T16:43:54.508Z,3.2684563758389262
2024-01-30T16:47:14.913Z,2.295302013422819
2024-01-30T16:50:35.665Z,2.2013422818791946
2024-01-30T16:55:58.711Z,2.2416107382550337
2024-01-30T17:00:02.722Z,1.8657718120805369
2024-01-30T17:03:23.721Z,1.9060402684563758
2024-01-30T17:06:44.131Z,1.6644295302013423
2024-01-30T17:10:28.034Z,1.919463087248322
2024-01-30T17:13:48.056Z,2.0
2024-01-30T17:19:13.286Z,1.6241610738255035
2024-01-30T17:25:47.597Z,1.5302013422818792
2024-01-30T17:29:07.429Z,0.7114093959731543
2024-01-30T17:32:27.996Z,1.5302013422818792
2024-01-30T17:35:48.199Z,1.0335570469798658
2024-01-30T17:39:09.090Z,1.3288590604026846
2024-01-30T17:42:30.208Z,0.33557046979865773
2024-01-30T17:45:50.793Z,1.1812080536912752
2024-01-30T17:50:18.067Z,0.3221476510067114
2024-01-30T17:53:38.435Z,0.5234899328859061
2024-01-30T17:56:58.272Z,0.8590604026845637
2024-01-30T18:00:20.127Z,0.6577181208053692
2024-01-30T18:03:39.962Z,0.5771812080536913
2024-01-30T18:07:00.203Z,0.7651006711409396
2024-01-30T18:10:21.013Z,0.28187919463087246
2024-01-30T18:13:42.102Z,0.8993288590604027
2024-01-30T18:17:02.344Z,1.1409395973154361
2024-01-30T18:20:23.378Z,0.5637583892617449
2024-01-30T18:23:44.021Z,0.3624161073825503
2024-01-30T18:27:05.496Z,0.4563758389261745
2024-01-30T18:30:26.009Z,1.087248322147651
2024-01-30T18:33:46.812Z,1.261744966442953
2024-01-30T18:37:06.646Z,0.6040268456375839
2024-01-30T18:40:26.933Z,1.3624161073825503
2024-01-30T18:43:46.566Z,0.7181208053691275
2024-01-30T18:47:06.916Z,1.1006711409395973
2024-01-30T18:50:27.730Z,1.3020134228187918
2024-01-30T18:53:47.974Z,0.9798657718120806
2024-01-30T18:57:08.256Z,0.9395973154362416
2024-01-30T19:00:29.208Z,1.3020134228187918
2024-01-30T19:03:49.299Z,0.4697986577181208
2024-01-30T19:07:10.409Z,0.697986577181208
2024-01-30T19:10:39.779Z,0.48322147651006714
2024-01-30T19:14:03.192Z,0.6308724832214765
2024-01-30T19:17:23.459Z,0.7516778523489933
2024-01-30T19:20:43.223Z,1.0067114093959733
2024-01-30T19:24:03.579Z,1.9060402684563758
2024-01-30T19:27:23.955Z,0.7919463087248322
2024-01-30T19:31:25.590Z,1.1275167785234899
2024-01-30T19:35:10.912Z,0.7919463087248322
2024-01-30T19:38:32.315Z,1.2483221476510067
2024-01-30T19:45:06.890Z,0.7516778523489933
2024-01-30T19:48:27.621Z,0.4966442953020134
2024-01-30T19:51:47.834Z,0.6174496644295302
2024-01-30T19:55:07.966Z,0.8053691275167785
2024-01-30T19:58:29.304Z,0.610738255033557
2024-01-30T20:01:49.564Z,1.6979865771812082
2024-01-30T20:06:26.153Z,0.4966442953020134
2024-01-30T20:10:27.535Z,1.261744966442953
2024-01-30T20:14:04.857Z,0.5771812080536913
2024-01-30T20:18:20.177Z,0.5100671140939598
2024-01-30T20:22:14.803Z,1.3020134228187918
2024-01-30T20:25:35.635Z,1.4496644295302012
2024-01-30T20:31:18.541Z,0.08053691275167785
2024-01-30T20:37:14.833Z,0.8456375838926175
2024-01-30T20:40:35.608Z,0.3221476510067114
2024-01-30T20:43:56.005Z,0.33557046979865773
2024-01-30T20:47:16.522Z,0.6711409395973155
2024-01-30T20:50:37.276Z,0.348993288590604
2024-01-30T20:53:57.340Z,1.1275167785234899
2024-01-30T20:57:17.481Z,0.0
2024-01-30T21:00:39.225Z,0.3221476510067114
2024-01-30T21:03:59.489Z,0.18791946308724833
2024-01-30T21:07:24.283Z,0.9798657718120806
2024-01-30T21:10:45.446Z,1.3154362416107384
2024-01-30T21:14:06.426Z,0.7114093959731543
2024-01-30T21:17:27.120Z,1.7516778523489933
2024-01-30T21:20:51.105Z,0.5771812080536913
2024-01-30T21:26:55.347Z,0.5100671140939598
2024-01-30T21:30:15.654Z,0.4966442953020134
2024-01-30T21:33:36.154Z,1.2080536912751678
2024-01-30T21:36:56.369Z,1.7516778523489933
2024-01-30T21:40:17.074Z,0.4966442953020134
2024-01-30T21:43:37.239Z,1.2147651006711409
2024-01-30T21:48:20.363Z,1.0268456375838926
2024-01-30T21:51:40.352Z,0.2953020134228188
2024-01-30T21:55:00.434Z,0.5503355704697986
2024-01-30T21:58:21.337Z,0.6711409395973155
2024-01-30T22:01:42.636Z,0.4966442953020134
2024-01-30T22:05:02.859Z,0.5771812080536913
2024-01-30T22:08:23.622Z,0.9395973154362416
2024-01-30T22:11:43.537Z,1.0469798657718121
2024-01-30T22:15:03.629Z,0.7248322147651006
2024-01-30T22:18:24.097Z,0.9731543624161074
2024-01-30T22:21:44.065Z,0.6711409395973155
2024-01-30T22:25:04.259Z,1.0201342281879195
2024-01-30T22:28:24.930Z,0.9261744966442953
2024-01-30T22:31:44.925Z,0.5100671140939598
2024-01-30T22:35:05.676Z,1.1946308724832215
2024-01-30T22:38:26.933Z,0.4161073825503356
2024-01-30T22:41:47.593Z,1.087248322147651
2024-01-30T22:45:08.165Z,1.2483221476510067
2024-01-30T22:48:29.064Z,1.395973154362416
2024-01-30T22:51:48.915Z,0.9798657718120806
2024-01-30T22:57:31.234Z,1.563758389261745
2024-01-30T23:00:52.544Z,1.0201342281879195
2024-01-30T23:04:13.502Z,1.4563758389261745
2024-01-30T23:07:34.335Z,1.221476510067114
2024-01-30T23:10:54.266Z,0.9798657718120806
2024-01-30T23:14:14.051Z,2.3557046979865772
2024-01-30T23:17:34.392Z,0.9798657718120806
2024-01-30T23:20:55.121Z,1.3758389261744965
2024-01-30T23:24:16.488Z,1.5033557046979866
2024-01-30T23:27:36.950Z,0.9328859060402684
2024-01-30T23:30:58.617Z,0.9664429530201343
2024-01-30T23:34:19.933Z,0.5234899328859061
2024-01-30T23:37:40.014Z,1.5570469798657718
2024-01-30T23:41:00.205Z,0.8389261744966443
2024-01-30T23:50:09.521Z,1.0335570469798658
2024-01-30T23:53:30.499Z,1.2080536912751678
2024-01-30T23:56:51.066Z,1.2080536912751678
